createdAt,value
2018-07-03T00:00:37.987Z,0.00
2018-07-03T00:01:38.040Z,0.00
2018-07-03T00:02:38.066Z,0.00
2018-07-03T00:03:38.118Z,0.00
2018-07-03T00:04:38.166Z,0.00
2018-07-03T00:05:38.217Z,0.00
2018-07-03T00:06:38.292Z,0.00
2018-07-03T00:07:38.321Z,0.00
2018-07-03T00:08:38.369Z,0.00
2018-07-03T00:09:38.420Z,0.00
2018-07-03T00:10:38.475Z,0.00
2018-07-03T00:11:38.565Z,0.00
2018-07-03T00:12:38.575Z,0.00
2018-07-03T00:13:38.643Z,0.00
2018-07-03T00:14:38.678Z,0.00
2018-07-03T00:15:38.733Z,0.00
2018-07-03T00:16:38.810Z,0.00
2018-07-03T00:17:38.829Z,0.00
2018-07-03T00:18:38.880Z,0.00
2018-07-03T00:19:38.931Z,0.00
2018-07-03T00:20:38.982Z,0.00
2018-07-03T00:21:39.057Z,0.00
2018-07-03T00:22:39.084Z,0.00
2018-07-03T00:23:39.158Z,0.00
2018-07-03T00:24:39.187Z,0.00
2018-07-03T00:25:39.239Z,0.00
2018-07-03T00:26:39.289Z,0.00
2018-07-03T00:27:39.339Z,0.00
2018-07-03T00:28:39.417Z,0.00
2018-07-03T00:29:39.442Z,0.00
2018-07-03T00:30:39.493Z,0.00
2018-07-03T00:31:39.544Z,0.00
2018-07-03T00:32:39.592Z,0.00
2018-07-03T00:33:39.667Z,0.00
2018-07-03T00:34:39.694Z,0.00
2018-07-03T00:35:39.746Z,0.00
2018-07-03T00:36:39.811Z,0.00
2018-07-03T00:37:39.849Z,0.00
2018-07-03T00:38:39.941Z,0.00
2018-07-03T00:39:39.949Z,0.00
2018-07-03T00:40:40.001Z,0.00
2018-07-03T00:41:40.050Z,0.00
2018-07-03T00:42:40.103Z,0.00
2018-07-03T00:43:40.191Z,0.00
2018-07-03T00:44:40.205Z,0.00
2018-07-03T00:45:40.253Z,0.00
2018-07-03T00:46:40.306Z,0.00
2018-07-03T00:47:40.357Z,0.00
2018-07-03T00:48:40.439Z,0.00
2018-07-03T00:49:40.455Z,0.00
2018-07-03T00:50:40.511Z,0.00
2018-07-03T00:51:40.558Z,0.00
2018-07-03T00:52:40.609Z,0.00
2018-07-03T00:53:40.689Z,0.00
2018-07-03T00:54:40.739Z,0.00
2018-07-03T00:55:40.763Z,0.00
2018-07-03T00:56:40.813Z,0.00
2018-07-03T00:57:40.878Z,0.00
2018-07-03T00:58:40.918Z,0.00
2018-07-03T00:59:40.988Z,0.00
2018-07-03T01:00:41.015Z,0.00
2018-07-03T01:01:41.066Z,0.00
2018-07-03T01:02:41.118Z,0.00
2018-07-03T01:03:41.167Z,0.00
2018-07-03T01:04:41.244Z,0.00
2018-07-03T01:05:41.269Z,0.00
2018-07-03T01:06:41.320Z,0.00
2018-07-03T01:07:41.370Z,0.00
2018-07-03T01:08:41.424Z,0.00
2018-07-03T01:09:41.509Z,0.00
2018-07-03T01:10:41.521Z,0.00
2018-07-03T01:11:41.573Z,0.00
2018-07-03T01:12:41.625Z,0.00
2018-07-03T01:13:41.673Z,0.00
2018-07-03T01:14:41.753Z,0.00
2018-07-03T01:15:41.775Z,0.00
2018-07-03T01:16:41.824Z,0.00
2018-07-03T01:17:41.877Z,0.00
2018-07-03T01:18:41.930Z,0.00
2018-07-03T01:19:42.011Z,0.00
2018-07-03T01:20:42.027Z,0.00
2018-07-03T01:21:42.079Z,0.00
2018-07-03T01:22:42.135Z,0.00
2018-07-03T01:23:42.179Z,0.00
2018-07-03T01:24:42.278Z,0.00
2018-07-03T01:25:42.279Z,0.00
2018-07-03T01:26:42.335Z,0.00
2018-07-03T01:27:42.381Z,0.00
2018-07-03T01:28:42.432Z,0.00
2018-07-03T01:29:42.514Z,0.00
2018-07-03T01:30:42.533Z,0.00
2018-07-03T01:31:42.584Z,0.00
2018-07-03T01:32:42.633Z,0.00
2018-07-03T01:33:42.686Z,0.00
2018-07-03T01:34:42.760Z,0.00
2018-07-03T01:35:42.786Z,0.00
2018-07-03T01:36:42.838Z,0.00
2018-07-03T01:37:42.886Z,0.00
2018-07-03T01:38:42.961Z,0.00
2018-07-03T01:39:42.997Z,0.00
2018-07-03T01:40:43.062Z,0.00
2018-07-03T01:41:43.099Z,0.00
2018-07-03T01:42:43.146Z,0.00
2018-07-03T01:43:43.197Z,0.00
2018-07-03T01:44:43.242Z,0.00
2018-07-03T01:45:43.327Z,0.00
2018-07-03T01:46:43.343Z,0.00
2018-07-03T01:47:43.393Z,0.00
2018-07-03T01:48:43.442Z,0.00
2018-07-03T01:49:43.491Z,0.00
2018-07-03T01:50:43.576Z,0.00
2018-07-03T01:51:43.595Z,0.00
2018-07-03T01:52:43.647Z,0.00
2018-07-03T01:53:43.694Z,0.00
2018-07-03T01:54:43.745Z,0.00
2018-07-03T01:55:43.824Z,0.00
2018-07-03T01:56:43.873Z,0.00
2018-07-03T01:57:43.896Z,0.00
2018-07-03T01:58:43.949Z,0.00
2018-07-03T01:59:43.999Z,0.00
2018-07-03T02:00:44.050Z,0.00
2018-07-03T02:01:44.123Z,0.00
2018-07-03T02:02:44.200Z,0.00
2018-07-03T02:03:44.199Z,0.00
2018-07-03T02:04:44.255Z,0.00
2018-07-03T02:05:44.304Z,0.00
2018-07-03T02:06:44.388Z,0.00
2018-07-03T02:07:44.400Z,0.00
2018-07-03T02:08:44.450Z,0.00
2018-07-03T02:09:44.501Z,0.00
2018-07-03T02:10:44.553Z,0.00
2018-07-03T02:11:44.631Z,0.00
2018-07-03T02:12:44.651Z,0.00
2018-07-03T02:13:44.710Z,0.00
2018-07-03T02:14:44.752Z,0.00
2018-07-03T02:15:44.805Z,0.00
2018-07-03T02:16:44.876Z,0.00
2018-07-03T02:17:44.936Z,0.00
2018-07-03T02:18:44.959Z,0.00
2018-07-03T02:19:45.005Z,0.00
2018-07-03T02:20:45.054Z,0.00
2018-07-03T02:21:45.111Z,0.00
2018-07-03T02:22:45.186Z,0.00
2018-07-03T02:23:45.231Z,0.00
2018-07-03T02:24:45.254Z,0.00
2018-07-03T02:25:45.317Z,0.00
2018-07-03T02:26:45.357Z,0.00
2018-07-03T02:27:45.438Z,0.00
2018-07-03T02:28:45.459Z,0.00
2018-07-03T02:29:45.509Z,0.00
2018-07-03T02:30:45.559Z,0.00
2018-07-03T02:31:45.608Z,0.00
2018-07-03T02:32:45.681Z,0.00
2018-07-03T02:33:45.741Z,0.00
2018-07-03T02:34:45.758Z,0.00
2018-07-03T02:35:45.814Z,0.00
2018-07-03T02:36:45.857Z,0.00
2018-07-03T02:37:45.910Z,0.00
2018-07-03T02:38:45.993Z,0.00
2018-07-03T02:39:46.011Z,0.00
2018-07-03T02:40:46.059Z,0.00
2018-07-03T02:41:46.112Z,0.00
2018-07-03T02:42:46.164Z,0.00
2018-07-03T02:43:46.234Z,0.00
2018-07-03T02:44:46.291Z,0.00
2018-07-03T02:45:46.315Z,0.00
2018-07-03T02:46:46.362Z,0.00
2018-07-03T02:47:46.413Z,0.00
2018-07-03T02:48:46.461Z,0.00
2018-07-03T02:49:46.538Z,4.00
2018-07-03T02:50:46.563Z,4.00
2018-07-03T02:51:46.612Z,0.00
2018-07-03T02:52:46.663Z,4.00
2018-07-03T02:53:46.714Z,4.00
2018-07-03T02:54:46.805Z,4.00
2018-07-03T02:55:46.812Z,4.00
2018-07-03T02:56:46.862Z,8.00
2018-07-03T02:57:46.913Z,8.00
2018-07-03T02:58:46.963Z,8.00
2018-07-03T02:59:47.047Z,8.00
2018-07-03T03:00:47.063Z,8.00
2018-07-03T03:01:47.118Z,8.00
2018-07-03T03:02:47.182Z,12.00
2018-07-03T03:03:47.222Z,12.00
2018-07-03T03:04:47.288Z,16.00
2018-07-03T03:05:47.350Z,20.00
2018-07-03T03:06:47.365Z,24.00
2018-07-03T03:07:47.415Z,28.00
2018-07-03T03:08:47.464Z,32.00
2018-07-03T03:09:47.516Z,32.00
2018-07-03T03:10:47.598Z,40.00
2018-07-03T03:11:47.626Z,44.00
2018-07-03T03:12:47.667Z,52.00
2018-07-03T03:13:47.718Z,60.00
2018-07-03T03:14:47.766Z,68.00
2018-07-03T03:15:47.859Z,80.00
2018-07-03T03:16:47.866Z,92.00
2018-07-03T03:17:47.916Z,100.00
2018-07-03T03:18:47.969Z,116.00
2018-07-03T03:19:48.020Z,128.00
2018-07-03T03:20:48.099Z,144.00
2018-07-03T03:21:48.126Z,160.00
2018-07-03T03:22:48.175Z,180.00
2018-07-03T03:23:48.219Z,200.00
2018-07-03T03:24:48.290Z,220.00
2018-07-03T03:25:48.364Z,236.00
2018-07-03T03:26:48.372Z,256.00
2018-07-03T03:27:48.419Z,276.00
2018-07-03T03:28:48.469Z,296.00
2018-07-03T03:29:48.518Z,316.00
2018-07-03T03:30:48.594Z,344.00
2018-07-03T03:31:48.633Z,372.00
2018-07-03T03:32:48.693Z,400.00
2018-07-03T03:33:48.720Z,428.00
2018-07-03T03:34:48.770Z,452.00
2018-07-03T03:35:48.823Z,480.00
2018-07-03T03:36:48.872Z,512.00
2018-07-03T03:37:48.945Z,540.00
2018-07-03T03:38:48.974Z,572.00
2018-07-03T03:39:49.024Z,604.00
2018-07-03T03:40:49.072Z,632.00
2018-07-03T03:41:49.146Z,664.00
2018-07-03T03:42:49.210Z,704.00
2018-07-03T03:43:49.224Z,748.00
2018-07-03T03:44:49.274Z,792.00
2018-07-03T03:45:49.323Z,844.00
2018-07-03T03:46:49.374Z,892.00
2018-07-03T03:47:49.454Z,940.00
2018-07-03T03:48:49.473Z,988.00
2018-07-03T03:49:49.528Z,1044.00
2018-07-03T03:50:49.574Z,1108.00
2018-07-03T03:51:49.624Z,1176.00
2018-07-03T03:52:49.717Z,1240.00
2018-07-03T03:53:49.751Z,1272.00
2018-07-03T03:54:49.775Z,1292.00
2018-07-03T03:55:49.825Z,1300.00
2018-07-03T03:56:49.873Z,1308.00
2018-07-03T03:57:49.948Z,1316.00
2018-07-03T03:58:50.024Z,1340.00
2018-07-03T03:59:50.027Z,1360.00
2018-07-03T04:00:50.112Z,1384.00
2018-07-03T04:01:50.125Z,1416.00
2018-07-03T04:02:50.177Z,1452.00
2018-07-03T04:03:50.262Z,1488.00
2018-07-03T04:04:50.275Z,1524.00
2018-07-03T04:05:50.325Z,1552.00
2018-07-03T04:06:50.411Z,1600.00
2018-07-03T04:07:50.426Z,1652.00
2018-07-03T04:08:50.501Z,1700.00
2018-07-03T04:09:50.553Z,1732.00
2018-07-03T04:10:50.576Z,1760.00
2018-07-03T04:11:50.627Z,1776.00
2018-07-03T04:12:50.678Z,1804.00
2018-07-03T04:13:50.726Z,1840.00
2018-07-03T04:14:50.801Z,1888.00
2018-07-03T04:15:50.828Z,1936.00
2018-07-03T04:16:50.878Z,1980.00
2018-07-03T04:17:50.925Z,2004.00
2018-07-03T04:18:50.976Z,2012.00
2018-07-03T04:19:51.065Z,2004.00
2018-07-03T04:20:51.077Z,1988.00
2018-07-03T04:21:51.127Z,1976.00
2018-07-03T04:22:51.179Z,1968.00
2018-07-03T04:23:51.227Z,1956.00
2018-07-03T04:24:51.312Z,1952.00
2018-07-03T04:25:51.328Z,1960.00
2018-07-03T04:26:51.378Z,1992.00
2018-07-03T04:27:51.429Z,2048.00
2018-07-03T04:28:51.480Z,2112.00
2018-07-03T04:29:51.557Z,2188.00
2018-07-03T04:30:51.620Z,2268.00
2018-07-03T04:31:51.629Z,2356.00
2018-07-03T04:32:51.678Z,2436.00
2018-07-03T04:33:51.730Z,2516.00
2018-07-03T04:34:51.785Z,2596.00
2018-07-03T04:35:51.861Z,2680.00
2018-07-03T04:36:51.878Z,2780.00
2018-07-03T04:37:51.930Z,2888.00
2018-07-03T04:38:51.981Z,2992.00
2018-07-03T04:39:52.031Z,3096.00
2018-07-03T04:40:52.111Z,3216.00
2018-07-03T04:41:52.131Z,3352.00
2018-07-03T04:42:52.181Z,3500.00
2018-07-03T04:43:52.232Z,3672.00
2018-07-03T04:44:52.287Z,3892.00
2018-07-03T04:45:52.356Z,4112.00
2018-07-03T04:46:52.397Z,4292.00
2018-07-03T04:47:52.456Z,4436.00
2018-07-03T04:48:52.480Z,4568.00
2018-07-03T04:49:52.534Z,4708.00
2018-07-03T04:50:52.584Z,4864.00
2018-07-03T04:51:52.633Z,5052.00
2018-07-03T04:52:52.714Z,5252.00
2018-07-03T04:53:52.735Z,5456.00
2018-07-03T04:54:52.784Z,5612.00
2018-07-03T04:55:52.837Z,5784.00
2018-07-03T04:56:52.884Z,5960.00
2018-07-03T04:57:52.960Z,6128.00
2018-07-03T04:58:52.983Z,6208.00
2018-07-03T04:59:53.035Z,6076.00
2018-07-03T05:00:53.087Z,5932.00
2018-07-03T05:01:53.133Z,5888.00
2018-07-03T05:02:53.219Z,5928.00
2018-07-03T05:03:53.241Z,6012.00
2018-07-03T05:04:53.284Z,6040.00
2018-07-03T05:05:53.343Z,6036.00
2018-07-03T05:06:53.385Z,6008.00
2018-07-03T05:07:53.463Z,6004.00
2018-07-03T05:08:53.513Z,5876.00
2018-07-03T05:09:53.538Z,5672.00
2018-07-03T05:10:53.587Z,5536.00
2018-07-03T05:11:53.640Z,5492.00
2018-07-03T05:12:53.688Z,5524.00
2018-07-03T05:13:53.771Z,5620.00
2018-07-03T05:14:53.791Z,5824.00
2018-07-03T05:15:53.845Z,6132.00
2018-07-03T05:16:53.890Z,6484.00
2018-07-03T05:17:53.944Z,6812.00
2018-07-03T05:18:54.024Z,7200.00
2018-07-03T05:19:54.045Z,7636.00
2018-07-03T05:20:54.094Z,8236.00
2018-07-03T05:21:54.145Z,8908.00
2018-07-03T05:22:54.194Z,9564.00
2018-07-03T05:23:54.287Z,10016.00
2018-07-03T05:24:54.301Z,10256.00
2018-07-03T05:25:54.345Z,10460.00
2018-07-03T05:26:54.396Z,10668.00
2018-07-03T05:27:54.448Z,11020.00
2018-07-03T05:28:54.532Z,11424.00
2018-07-03T05:29:54.549Z,11756.00
2018-07-03T05:30:54.600Z,11924.00
2018-07-03T05:31:54.652Z,11748.00
2018-07-03T05:32:54.700Z,11496.00
2018-07-03T05:33:54.777Z,11336.00
2018-07-03T05:34:54.811Z,11252.00
2018-07-03T05:35:54.916Z,11304.00
2018-07-03T05:36:54.903Z,11392.00
2018-07-03T05:37:54.957Z,11352.00
2018-07-03T05:38:55.010Z,11220.00
2018-07-03T05:39:55.237Z,11048.00
2018-07-03T05:40:55.145Z,10856.00
2018-07-03T05:41:55.161Z,10756.00
2018-07-03T05:42:55.241Z,10764.00
2018-07-03T05:43:55.261Z,10700.00
2018-07-03T05:44:55.313Z,10428.00
2018-07-03T05:45:55.398Z,10612.00
2018-07-03T05:46:55.424Z,10216.00
2018-07-03T05:47:55.468Z,10384.00
2018-07-03T05:48:55.517Z,10240.00
2018-07-03T05:49:55.568Z,10012.00
2018-07-03T05:50:55.652Z,9608.00
2018-07-03T05:51:55.715Z,9244.00
2018-07-03T05:52:55.726Z,8856.00
2018-07-03T05:53:55.776Z,8560.00
2018-07-03T05:54:55.827Z,8444.00
2018-07-03T05:55:55.901Z,8428.00
2018-07-03T05:56:55.934Z,8448.00
2018-07-03T05:57:55.979Z,8504.00
2018-07-03T05:58:56.030Z,8544.00
2018-07-03T05:59:56.084Z,8528.00
2018-07-03T06:00:56.160Z,8792.00
2018-07-03T06:01:56.209Z,8832.00
2018-07-03T06:02:56.234Z,8856.00
2018-07-03T06:03:56.303Z,8824.00
2018-07-03T06:04:56.337Z,8728.00
2018-07-03T06:05:56.389Z,8604.00
2018-07-03T06:06:56.481Z,8452.00
2018-07-03T06:07:56.495Z,8300.00
2018-07-03T06:08:56.545Z,8128.00
2018-07-03T06:09:56.597Z,7888.00
2018-07-03T06:10:56.651Z,7568.00
2018-07-03T06:11:56.729Z,7424.00
2018-07-03T06:12:56.787Z,7560.00
2018-07-03T06:13:56.801Z,7864.00
2018-07-03T06:14:56.892Z,8080.00
2018-07-03T06:15:56.899Z,8212.00
2018-07-03T06:16:56.981Z,8280.00
2018-07-03T06:17:57.004Z,8300.00
2018-07-03T06:18:57.055Z,8352.00
2018-07-03T06:19:57.112Z,8452.00
2018-07-03T06:20:58.227Z,8660.00
2018-07-03T06:21:57.323Z,8956.00
2018-07-03T06:22:57.283Z,9308.00
2018-07-03T06:23:57.309Z,9776.00
2018-07-03T06:24:57.362Z,10360.00
2018-07-03T06:25:57.415Z,10996.00
2018-07-03T06:26:57.464Z,11808.00
2018-07-03T06:27:57.568Z,13116.00
2018-07-03T06:28:57.632Z,13844.00
2018-07-03T06:29:57.637Z,13632.00
2018-07-03T06:30:57.676Z,13236.00
2018-07-03T06:31:57.719Z,13096.00
2018-07-03T06:32:57.784Z,13284.00
2018-07-03T06:33:57.852Z,13740.00
2018-07-03T06:34:57.869Z,14696.00
2018-07-03T06:35:57.921Z,16220.00
2018-07-03T06:36:57.972Z,18208.00
2018-07-03T06:37:58.048Z,20448.00
2018-07-03T06:38:58.116Z,22400.00
2018-07-03T06:39:58.126Z,23744.00
2018-07-03T06:40:58.179Z,24352.00
2018-07-03T06:41:58.244Z,24448.00
2018-07-03T06:42:58.318Z,24576.00
2018-07-03T06:43:58.331Z,25024.00
2018-07-03T06:44:58.440Z,25728.00
2018-07-03T06:45:58.435Z,26336.00
2018-07-03T06:46:58.486Z,26944.00
2018-07-03T06:47:58.561Z,27584.00
2018-07-03T06:48:58.590Z,27296.00
2018-07-03T06:49:58.793Z,24736.00
2018-07-03T06:50:58.692Z,22176.00
2018-07-03T06:51:58.745Z,20736.00
2018-07-03T06:52:58.793Z,20288.00
2018-07-03T06:53:58.893Z,19872.00
2018-07-03T06:54:58.898Z,19712.00
2018-07-03T06:55:58.957Z,20000.00
2018-07-03T06:56:59.002Z,20256.00
2018-07-03T06:57:59.153Z,20608.00
2018-07-03T06:58:59.137Z,21504.00
2018-07-03T06:59:59.159Z,22752.00
2018-07-03T07:00:59.210Z,23808.00
2018-07-03T07:01:59.264Z,24448.00
2018-07-03T07:02:59.327Z,24832.00
2018-07-03T07:03:59.396Z,25120.00
2018-07-03T07:04:59.418Z,25536.00
2018-07-03T07:05:59.470Z,26464.00
2018-07-03T07:06:59.523Z,27808.00
2018-07-03T07:07:59.576Z,29504.00
2018-07-03T07:08:59.680Z,31552.00
2018-07-03T07:09:59.680Z,33440.00
2018-07-03T07:10:59.769Z,35520.00
2018-07-03T07:11:59.788Z,35872.00
2018-07-03T07:12:59.839Z,35168.00
2018-07-03T07:13:59.890Z,34752.00
2018-07-03T07:14:59.966Z,33536.00
2018-07-03T07:16:00.036Z,31360.00
2018-07-03T07:17:00.049Z,29760.00
2018-07-03T07:18:00.101Z,29696.00
2018-07-03T07:19:00.158Z,30112.00
2018-07-03T07:20:00.210Z,31008.00
2018-07-03T07:21:00.284Z,31616.00
2018-07-03T07:22:00.337Z,31456.00
2018-07-03T07:23:00.370Z,30688.00
2018-07-03T07:24:00.421Z,29952.00
2018-07-03T07:25:00.473Z,27840.00
2018-07-03T07:26:00.526Z,26560.00
2018-07-03T07:27:00.602Z,25504.00
2018-07-03T07:28:00.631Z,23392.00
2018-07-03T07:29:00.684Z,19232.00
2018-07-03T07:30:00.748Z,14264.00
2018-07-03T07:31:00.791Z,9692.00
2018-07-03T07:32:00.891Z,6760.00
2018-07-03T07:33:00.898Z,5192.00
2018-07-03T07:34:00.954Z,4324.00
2018-07-03T07:35:01.002Z,3828.00
2018-07-03T07:36:01.073Z,3548.00
2018-07-03T07:37:01.138Z,3360.00
2018-07-03T07:38:01.164Z,3172.00
2018-07-03T07:39:01.216Z,2976.00
2018-07-03T07:40:01.268Z,2784.00
2018-07-03T07:41:01.321Z,2556.00
2018-07-03T07:42:01.399Z,2340.00
2018-07-03T07:43:01.463Z,2200.00
2018-07-03T07:44:01.477Z,2188.00
2018-07-03T07:45:01.534Z,2276.00
2018-07-03T07:46:01.585Z,2316.00
2018-07-03T07:47:01.643Z,2264.00
2018-07-03T07:48:01.734Z,2104.00
2018-07-03T07:49:01.744Z,1908.00
2018-07-03T07:50:01.795Z,1748.00
2018-07-03T07:51:01.875Z,1612.00
2018-07-03T07:52:01.902Z,1492.00
2018-07-03T07:53:01.972Z,1424.00
2018-07-03T07:54:02.004Z,1384.00
2018-07-03T07:55:02.056Z,1356.00
2018-07-03T07:56:02.106Z,1340.00
2018-07-03T07:57:02.165Z,1332.00
2018-07-03T07:58:02.243Z,1296.00
2018-07-03T07:59:02.262Z,1240.00
2018-07-03T08:00:02.312Z,1216.00
2018-07-03T08:01:02.367Z,1156.00
2018-07-03T08:02:02.412Z,1112.00
2018-07-03T08:03:02.488Z,1160.00
2018-07-03T08:04:02.514Z,1208.00
2018-07-03T08:05:02.587Z,1272.00
2018-07-03T08:06:02.619Z,1304.00
2018-07-03T08:07:02.666Z,1268.00
2018-07-03T08:08:02.718Z,1240.00
2018-07-03T08:09:02.790Z,1180.00
2018-07-03T08:10:02.846Z,1084.00
2018-07-03T08:11:02.869Z,1060.00
2018-07-03T08:12:02.925Z,1060.00
2018-07-03T08:13:02.967Z,1076.00
2018-07-03T08:14:03.020Z,1092.00
2018-07-03T08:15:03.097Z,1088.00
2018-07-03T08:16:03.124Z,1088.00
2018-07-03T08:17:03.170Z,1068.00
2018-07-03T08:18:03.227Z,1096.00
2018-07-03T08:19:03.274Z,1064.00
2018-07-03T08:20:03.345Z,1104.00
2018-07-03T08:21:03.368Z,1152.00
2018-07-03T08:22:03.426Z,1168.00
2018-07-03T08:23:03.473Z,1164.00
2018-07-03T08:24:03.523Z,1168.00
2018-07-03T08:25:03.602Z,1168.00
2018-07-03T08:26:03.646Z,1152.00
2018-07-03T08:27:03.675Z,1152.00
2018-07-03T08:28:03.720Z,1128.00
2018-07-03T08:29:03.768Z,1128.00
2018-07-03T08:30:03.819Z,1124.00
2018-07-03T08:31:03.920Z,1128.00
2018-07-03T08:32:03.920Z,1108.00
2018-07-03T08:33:03.969Z,1136.00
2018-07-03T08:34:04.033Z,1136.00
2018-07-03T08:35:04.066Z,1144.00
2018-07-03T08:36:04.160Z,1184.00
2018-07-03T08:37:04.169Z,1232.00
2018-07-03T08:38:04.218Z,1264.00
2018-07-03T08:39:04.269Z,1248.00
2018-07-03T08:40:04.320Z,1284.00
2018-07-03T08:41:04.414Z,1340.00
2018-07-03T08:42:04.448Z,1400.00
2018-07-03T08:43:04.468Z,1444.00
2018-07-03T08:44:04.517Z,1492.00
2018-07-03T08:45:04.569Z,1524.00
2018-07-03T08:46:04.646Z,1564.00
2018-07-03T08:47:04.667Z,1604.00
2018-07-03T08:48:04.717Z,1640.00
2018-07-03T08:49:04.765Z,1680.00
2018-07-03T08:50:04.815Z,1704.00
2018-07-03T08:51:04.895Z,1720.00
2018-07-03T08:52:04.919Z,1708.00
2018-07-03T08:53:04.999Z,1672.00
2018-07-03T08:54:05.016Z,1552.00
2018-07-03T08:55:05.103Z,1596.00
2018-07-03T08:56:05.116Z,1560.00
2018-07-03T08:57:05.197Z,1612.00
2018-07-03T08:58:05.231Z,1644.00
2018-07-03T08:59:05.263Z,1652.00
2018-07-03T09:00:05.317Z,1712.00
2018-07-03T09:01:05.362Z,1732.00
2018-07-03T09:02:05.439Z,1704.00
2018-07-03T09:03:05.491Z,1728.00
2018-07-03T09:04:05.517Z,1756.00
2018-07-03T09:05:05.562Z,1772.00
2018-07-03T09:06:05.617Z,1796.00
2018-07-03T09:07:05.692Z,1844.00
2018-07-03T09:08:05.714Z,1856.00
2018-07-03T09:09:05.763Z,1828.00
2018-07-03T09:10:05.839Z,1864.00
2018-07-03T09:11:05.864Z,1884.00
2018-07-03T09:12:05.947Z,1932.00
2018-07-03T09:13:05.963Z,1916.00
2018-07-03T09:14:06.013Z,1928.00
2018-07-03T09:15:06.063Z,1856.00
2018-07-03T09:16:06.112Z,1536.00
2018-07-03T09:17:06.201Z,1136.00
2018-07-03T09:18:06.245Z,1124.00
2018-07-03T09:19:06.275Z,1128.00
2018-07-03T09:20:06.311Z,1200.00
2018-07-03T09:21:06.362Z,1500.00
2018-07-03T09:22:06.434Z,1880.00
2018-07-03T09:23:06.460Z,1956.00
2018-07-03T09:24:06.512Z,2024.00
2018-07-03T09:25:06.561Z,2044.00
2018-07-03T09:26:06.644Z,2064.00
2018-07-03T09:27:06.663Z,2052.00
2018-07-03T09:28:06.713Z,2052.00
2018-07-03T09:29:06.763Z,2040.00
2018-07-03T09:30:06.817Z,2040.00
2018-07-03T09:31:06.887Z,2024.00
2018-07-03T09:32:06.914Z,2044.00
2018-07-03T09:33:06.986Z,2060.00
2018-07-03T09:34:07.011Z,2072.00
2018-07-03T09:35:07.063Z,2096.00
2018-07-03T09:36:07.117Z,2100.00
2018-07-03T09:37:07.183Z,2128.00
2018-07-03T09:38:07.218Z,2164.00
2018-07-03T09:39:07.261Z,2172.00
2018-07-03T09:40:07.315Z,2216.00
2018-07-03T09:41:07.360Z,2220.00
2018-07-03T09:42:07.436Z,2232.00
2018-07-03T09:43:07.462Z,2272.00
2018-07-03T09:44:07.511Z,2292.00
2018-07-03T09:45:07.560Z,2308.00
2018-07-03T09:46:07.610Z,2332.00
2018-07-03T09:47:07.691Z,2328.00
2018-07-03T09:48:07.719Z,2344.00
2018-07-03T09:49:07.783Z,2360.00
2018-07-03T09:50:07.815Z,2392.00
2018-07-03T09:51:07.861Z,2424.00
2018-07-03T09:52:07.910Z,2452.00
2018-07-03T09:53:07.964Z,2488.00
2018-07-03T09:54:08.047Z,2524.00
2018-07-03T09:55:08.063Z,2556.00
2018-07-03T09:56:08.110Z,2580.00
2018-07-03T09:57:08.161Z,2616.00
2018-07-03T09:58:08.217Z,2644.00
2018-07-03T09:59:08.292Z,2672.00
2018-07-03T10:00:08.309Z,2736.00
2018-07-03T10:01:08.362Z,2808.00
2018-07-03T10:02:08.409Z,2876.00
2018-07-03T10:03:08.458Z,2920.00
2018-07-03T10:04:08.531Z,2956.00
2018-07-03T10:05:08.615Z,3012.00
2018-07-03T10:06:08.611Z,3048.00
2018-07-03T10:07:08.660Z,3112.00
2018-07-03T10:08:08.710Z,3124.00
2018-07-03T10:09:08.758Z,3160.00
2018-07-03T10:10:08.847Z,3180.00
2018-07-03T10:11:08.859Z,3260.00
2018-07-03T10:12:08.911Z,3336.00
2018-07-03T10:13:08.957Z,3420.00
2018-07-03T10:14:09.011Z,3436.00
2018-07-03T10:15:09.082Z,3532.00
2018-07-03T10:16:09.140Z,3276.00
2018-07-03T10:17:09.158Z,3264.00
2018-07-03T10:18:09.210Z,3376.00
2018-07-03T10:19:09.261Z,3608.00
2018-07-03T10:20:09.349Z,3856.00
2018-07-03T10:21:09.358Z,4036.00
2018-07-03T10:22:09.411Z,4356.00
2018-07-03T10:23:09.459Z,4584.00
2018-07-03T10:24:09.510Z,4712.00
2018-07-03T10:25:09.583Z,4916.00
2018-07-03T10:26:09.636Z,5128.00
2018-07-03T10:27:10.594Z,5384.00
2018-07-03T10:28:09.708Z,5532.00
2018-07-03T10:29:09.757Z,5752.00
2018-07-03T10:30:09.812Z,5940.00
2018-07-03T10:31:09.888Z,6108.00
2018-07-03T10:32:09.937Z,6244.00
2018-07-03T10:33:09.958Z,6404.00
2018-07-03T10:34:10.008Z,6540.00
2018-07-03T10:35:10.058Z,6656.00
2018-07-03T10:36:10.131Z,6728.00
2018-07-03T10:37:10.181Z,6844.00
2018-07-03T10:38:10.210Z,6944.00
2018-07-03T10:39:10.262Z,7064.00
2018-07-03T10:40:10.313Z,7116.00
2018-07-03T10:41:10.462Z,7124.00
2018-07-03T10:42:10.412Z,7260.00
2018-07-03T10:43:10.458Z,7304.00
2018-07-03T10:44:10.508Z,7488.00
2018-07-03T10:45:10.558Z,7592.00
2018-07-03T10:46:10.636Z,7728.00
2018-07-03T10:47:10.690Z,7856.00
2018-07-03T10:48:10.712Z,7984.00
2018-07-03T10:49:10.759Z,8196.00
2018-07-03T10:50:10.811Z,8472.00
2018-07-03T10:51:10.859Z,8664.00
2018-07-03T10:52:10.938Z,9220.00
2018-07-03T10:53:10.966Z,9508.00
2018-07-03T10:54:11.049Z,9912.00
2018-07-03T10:55:11.058Z,10240.00
2018-07-03T10:56:11.112Z,10636.00
2018-07-03T10:57:11.185Z,11196.00
2018-07-03T10:58:11.233Z,11728.00
2018-07-03T10:59:11.266Z,12284.00
2018-07-03T11:00:11.312Z,12960.00
2018-07-03T11:01:11.363Z,13564.00
2018-07-03T11:02:11.424Z,14120.00
2018-07-03T11:03:11.497Z,14732.00
2018-07-03T11:04:11.510Z,15236.00
2018-07-03T11:05:11.560Z,15716.00
2018-07-03T11:06:11.617Z,16232.00
2018-07-03T11:07:11.679Z,16968.00
2018-07-03T11:08:11.742Z,17544.00
2018-07-03T11:09:11.763Z,18272.00
2018-07-03T11:10:11.815Z,18848.00
2018-07-03T11:11:11.863Z,19424.00
2018-07-03T11:12:11.916Z,19872.00
2018-07-03T11:13:11.988Z,20256.00
2018-07-03T11:14:12.015Z,20544.00
2018-07-03T11:15:12.074Z,20672.00
2018-07-03T11:16:12.115Z,20864.00
2018-07-03T11:17:12.167Z,21024.00
2018-07-03T11:18:12.250Z,21056.00
2018-07-03T11:19:12.267Z,21088.00
2018-07-03T11:20:12.382Z,21088.00
2018-07-03T11:21:12.368Z,21088.00
2018-07-03T11:22:12.419Z,21024.00
2018-07-03T11:23:12.496Z,20960.00
2018-07-03T11:24:12.520Z,20768.00
2018-07-03T11:25:12.570Z,20576.00
2018-07-03T11:26:12.624Z,20352.00
2018-07-03T11:27:12.700Z,20096.00
2018-07-03T11:28:12.725Z,19840.00
2018-07-03T11:29:12.777Z,19680.00
2018-07-03T11:30:12.831Z,19424.00
2018-07-03T11:31:12.879Z,19200.00
2018-07-03T11:32:12.950Z,18976.00
2018-07-03T11:33:12.985Z,18784.00
2018-07-03T11:34:13.030Z,18624.00
2018-07-03T11:35:13.077Z,18528.00
2018-07-03T11:36:13.128Z,18432.00
2018-07-03T11:37:13.213Z,18368.00
2018-07-03T11:38:13.235Z,18336.00
2018-07-03T11:39:13.283Z,18272.00
2018-07-03T11:40:13.350Z,18208.00
2018-07-03T11:41:13.381Z,18240.00
2018-07-03T11:42:13.467Z,18368.00
2018-07-03T11:43:13.488Z,18624.00
2018-07-03T11:44:13.538Z,18976.00
2018-07-03T11:45:13.588Z,19488.00
2018-07-03T11:46:13.636Z,20064.00
2018-07-03T11:47:13.714Z,20768.00
2018-07-03T11:48:13.762Z,21696.00
2018-07-03T11:49:13.792Z,22912.00
2018-07-03T11:50:13.840Z,24416.00
2018-07-03T11:51:13.893Z,26240.00
2018-07-03T11:52:13.942Z,28416.00
2018-07-03T11:53:14.044Z,30720.00
2018-07-03T11:54:14.045Z,33216.00
2018-07-03T11:55:14.094Z,35904.00
2018-07-03T11:56:14.148Z,40192.00
2018-07-03T11:57:14.196Z,41152.00
2018-07-03T11:58:14.281Z,45184.00
2018-07-03T11:59:14.300Z,48896.00
2018-07-03T12:00:14.350Z,57504.00
2018-07-03T12:01:14.405Z,55360.00
2018-07-03T12:02:14.452Z,73184.00
2018-07-03T12:03:14.545Z,78944.00
2018-07-03T12:04:14.557Z,81408.00
2018-07-03T12:05:14.609Z,86688.00
2018-07-03T12:06:14.662Z,95808.00
2018-07-03T12:07:14.709Z,106592.00
2018-07-03T12:08:14.802Z,124704.00
2018-07-03T12:09:14.816Z,135712.00
2018-07-03T12:10:14.865Z,139872.00
2018-07-03T12:11:14.934Z,139616.00
2018-07-03T12:12:14.969Z,130272.00
2018-07-03T12:13:15.053Z,113088.00
2018-07-03T12:14:15.075Z,94880.00
2018-07-03T12:15:15.130Z,84960.00
2018-07-03T12:16:15.183Z,82624.00
2018-07-03T12:17:15.233Z,85440.00
2018-07-03T12:18:15.330Z,89760.00
2018-07-03T12:19:15.350Z,92992.00